sensor_id;sensor_type;location;lat;lon;timestamp;temperature;humidity
39067;DHT22;24821;51.988;6.020;2023-07-28T00:00:06;19.10;99.90
39067;DHT22;24821;51.988;6.020;2023-07-28T00:02:32;19.20;99.90
39067;DHT22;24821;51.988;6.020;2023-07-28T00:04:57;19.20;99.90
39067;DHT22;24821;51.988;6.020;2023-07-28T00:07:23;19.20;99.90
39067;DHT22;24821;51.988;6.020;2023-07-28T00:09:48;19.20;99.90
39067;DHT22;24821;51.988;6.020;2023-07-28T00:12:14;19.20;99.90
39067;DHT22;24821;51.988;6.020;2023-07-28T00:14:40;19.20;99.90
39067;DHT22;24821;51.988;6.020;2023-07-28T00:17:05;19.20;99.90
39067;DHT22;24821;51.988;6.020;2023-07-28T00:19:31;19.20;99.90
39067;DHT22;24821;51.988;6.020;2023-07-28T00:21:56;19.20;99.90
39067;DHT22;24821;51.988;6.020;2023-07-28T00:24:22;19.20;99.90
39067;DHT22;24821;51.988;6.020;2023-07-28T00:26:47;19.20;99.90
39067;DHT22;24821;51.988;6.020;2023-07-28T00:29:13;19.20;99.90
39067;DHT22;24821;51.988;6.020;2023-07-28T00:31:39;19.20;99.90
39067;DHT22;24821;51.988;6.020;2023-07-28T00:34:04;19.20;99.90
39067;DHT22;24821;51.988;6.020;2023-07-28T00:36:33;19.20;99.90
39067;DHT22;24821;51.988;6.020;2023-07-28T00:38:58;19.20;99.90
39067;DHT22;24821;51.988;6.020;2023-07-28T00:41:24;19.20;99.90
39067;DHT22;24821;51.988;6.020;2023-07-28T00:43:50;19.20;99.90
39067;DHT22;24821;51.988;6.020;2023-07-28T00:46:16;19.20;99.90
39067;DHT22;24821;51.988;6.020;2023-07-28T00:48:42;19.20;99.90
39067;DHT22;24821;51.988;6.020;2023-07-28T00:51:08;19.10;99.90
39067;DHT22;24821;51.988;6.020;2023-07-28T00:53:34;19.20;99.90
39067;DHT22;24821;51.988;6.020;2023-07-28T00:56:01;19.10;99.90
39067;DHT22;24821;51.988;6.020;2023-07-28T00:58:27;19.10;99.90
39067;DHT22;24821;51.988;6.020;2023-07-28T01:00:53;19.10;99.90
39067;DHT22;24821;51.988;6.020;2023-07-28T01:03:19;19.20;99.90
39067;DHT22;24821;51.988;6.020;2023-07-28T01:06:13;19.20;99.90
39067;DHT22;24821;51.988;6.020;2023-07-28T01:08:51;19.20;99.90
39067;DHT22;24821;51.988;6.020;2023-07-28T01:11:17;19.10;99.90
39067;DHT22;24821;51.988;6.020;2023-07-28T01:13:43;19.10;99.90
39067;DHT22;24821;51.988;6.020;2023-07-28T01:16:09;19.10;99.90
39067;DHT22;24821;51.988;6.020;2023-07-28T01:18:35;19.10;99.90
39067;DHT22;24821;51.988;6.020;2023-07-28T01:21:02;19.20;99.90
39067;DHT22;24821;51.988;6.020;2023-07-28T01:26:09;19.20;99.90
39067;DHT22;24821;51.988;6.020;2023-07-28T01:28:37;19.20;99.90
39067;DHT22;24821;51.988;6.020;2023-07-28T01:31:04;19.20;99.90
39067;DHT22;24821;51.988;6.020;2023-07-28T01:33:30;19.20;99.90
39067;DHT22;24821;51.988;6.020;2023-07-28T01:35:56;19.10;99.90
39067;DHT22;24821;51.988;6.020;2023-07-28T01:38:21;19.10;99.90
39067;DHT22;24821;51.988;6.020;2023-07-28T01:40:47;19.10;99.90
39067;DHT22;24821;51.988;6.020;2023-07-28T01:43:13;19.10;99.90
39067;DHT22;24821;51.988;6.020;2023-07-28T01:45:38;19.20;99.90
39067;DHT22;24821;51.988;6.020;2023-07-28T01:48:04;19.20;99.90
39067;DHT22;24821;51.988;6.020;2023-07-28T01:50:30;19.10;99.90
39067;DHT22;24821;51.988;6.020;2023-07-28T01:52:55;19.20;99.90
39067;DHT22;24821;51.988;6.020;2023-07-28T01:55:21;19.20;99.90
39067;DHT22;24821;51.988;6.020;2023-07-28T01:57:54;19.20;99.90
39067;DHT22;24821;51.988;6.020;2023-07-28T02:00:20;19.20;99.90
39067;DHT22;24821;51.988;6.020;2023-07-28T02:02:47;19.20;99.90
39067;DHT22;24821;51.988;6.020;2023-07-28T02:05:12;19.20;99.90
39067;DHT22;24821;51.988;6.020;2023-07-28T02:07:38;19.20;99.90
39067;DHT22;24821;51.988;6.020;2023-07-28T02:10:04;19.20;99.90
39067;DHT22;24821;51.988;6.020;2023-07-28T02:12:29;19.20;99.90
39067;DHT22;24821;51.988;6.020;2023-07-28T02:14:55;19.20;99.90
39067;DHT22;24821;51.988;6.020;2023-07-28T02:17:20;19.20;99.90
39067;DHT22;24821;51.988;6.020;2023-07-28T02:19:46;19.20;99.90
39067;DHT22;24821;51.988;6.020;2023-07-28T02:22:12;19.20;99.90
39067;DHT22;24821;51.988;6.020;2023-07-28T02:24:38;19.20;99.90
39067;DHT22;24821;51.988;6.020;2023-07-28T02:27:04;19.20;99.90
39067;DHT22;24821;51.988;6.020;2023-07-28T02:29:29;19.20;99.90
39067;DHT22;24821;51.988;6.020;2023-07-28T02:31:55;19.20;99.90
39067;DHT22;24821;51.988;6.020;2023-07-28T02:34:20;19.20;99.90
39067;DHT22;24821;51.988;6.020;2023-07-28T02:36:46;19.30;99.90
39067;DHT22;24821;51.988;6.020;2023-07-28T02:39:12;19.20;99.90
39067;DHT22;24821;51.988;6.020;2023-07-28T02:41:38;19.20;99.90
39067;DHT22;24821;51.988;6.020;2023-07-28T02:44:03;19.20;99.90
39067;DHT22;24821;51.988;6.020;2023-07-28T02:46:29;19.20;99.90
39067;DHT22;24821;51.988;6.020;2023-07-28T02:48:54;19.20;99.90
39067;DHT22;24821;51.988;6.020;2023-07-28T02:51:20;19.20;99.90
39067;DHT22;24821;51.988;6.020;2023-07-28T02:53:46;19.20;99.90
39067;DHT22;24821;51.988;6.020;2023-07-28T02:56:11;19.20;99.90
39067;DHT22;24821;51.988;6.020;2023-07-28T02:58:37;19.30;99.90
39067;DHT22;24821;51.988;6.020;2023-07-28T03:01:02;19.20;99.90
39067;DHT22;24821;51.988;6.020;2023-07-28T03:03:28;19.30;99.90
39067;DHT22;24821;51.988;6.020;2023-07-28T03:05:53;19.30;99.90
39067;DHT22;24821;51.988;6.020;2023-07-28T03:08:20;19.30;99.90
39067;DHT22;24821;51.988;6.020;2023-07-28T03:10:45;19.30;99.90
39067;DHT22;24821;51.988;6.020;2023-07-28T03:13:11;19.30;99.90
39067;DHT22;24821;51.988;6.020;2023-07-28T03:15:37;19.30;99.90
39067;DHT22;24821;51.988;6.020;2023-07-28T03:18:02;19.30;99.90
39067;DHT22;24821;51.988;6.020;2023-07-28T03:20:29;19.30;99.90
39067;DHT22;24821;51.988;6.020;2023-07-28T03:22:55;19.30;99.90
39067;DHT22;24821;51.988;6.020;2023-07-28T03:25:21;19.30;99.90
39067;DHT22;24821;51.988;6.020;2023-07-28T03:27:46;19.30;99.90
39067;DHT22;24821;51.988;6.020;2023-07-28T03:30:12;19.30;99.90
39067;DHT22;24821;51.988;6.020;2023-07-28T03:32:38;19.30;99.90
39067;DHT22;24821;51.988;6.020;2023-07-28T03:35:04;19.30;99.90
39067;DHT22;24821;51.988;6.020;2023-07-28T03:37:32;19.30;99.90
39067;DHT22;24821;51.988;6.020;2023-07-28T03:39:57;19.30;99.90
39067;DHT22;24821;51.988;6.020;2023-07-28T03:42:23;19.30;99.90
39067;DHT22;24821;51.988;6.020;2023-07-28T03:44:49;19.30;99.90
39067;DHT22;24821;51.988;6.020;2023-07-28T03:47:14;19.30;99.90
39067;DHT22;24821;51.988;6.020;2023-07-28T03:49:40;19.30;99.90
39067;DHT22;24821;51.988;6.020;2023-07-28T03:52:05;19.30;99.90
39067;DHT22;24821;51.988;6.020;2023-07-28T03:54:31;19.30;99.90
39067;DHT22;24821;51.988;6.020;2023-07-28T03:56:57;19.30;99.90
39067;DHT22;24821;51.988;6.020;2023-07-28T03:59:22;19.30;99.90
39067;DHT22;24821;51.988;6.020;2023-07-28T04:01:48;19.30;99.90
39067;DHT22;24821;51.988;6.020;2023-07-28T04:04:13;19.30;99.90
39067;DHT22;24821;51.988;6.020;2023-07-28T04:06:44;19.30;99.90
39067;DHT22;24821;51.988;6.020;2023-07-28T04:09:12;19.30;99.90
39067;DHT22;24821;51.988;6.020;2023-07-28T04:11:37;19.30;99.90
39067;DHT22;24821;51.988;6.020;2023-07-28T04:14:03;19.30;99.90
39067;DHT22;24821;51.988;6.020;2023-07-28T04:16:29;19.30;99.90
39067;DHT22;24821;51.988;6.020;2023-07-28T04:18:55;19.30;99.90
39067;DHT22;24821;51.988;6.020;2023-07-28T04:21:21;19.30;99.90
39067;DHT22;24821;51.988;6.020;2023-07-28T04:23:47;19.30;99.90
39067;DHT22;24821;51.988;6.020;2023-07-28T04:26:12;19.30;99.90
39067;DHT22;24821;51.988;6.020;2023-07-28T04:28:38;19.30;99.90
39067;DHT22;24821;51.988;6.020;2023-07-28T04:31:03;19.30;99.90
39067;DHT22;24821;51.988;6.020;2023-07-28T04:33:29;19.30;99.90
39067;DHT22;24821;51.988;6.020;2023-07-28T04:35:54;19.30;99.90
39067;DHT22;24821;51.988;6.020;2023-07-28T04:38:20;19.30;99.90
39067;DHT22;24821;51.988;6.020;2023-07-28T04:40:46;19.30;99.90
39067;DHT22;24821;51.988;6.020;2023-07-28T04:43:11;19.30;99.90
39067;DHT22;24821;51.988;6.020;2023-07-28T04:45:37;19.30;99.90
39067;DHT22;24821;51.988;6.020;2023-07-28T04:48:02;19.30;99.90
39067;DHT22;24821;51.988;6.020;2023-07-28T04:50:29;19.30;99.90
39067;DHT22;24821;51.988;6.020;2023-07-28T04:52:54;19.40;99.90
39067;DHT22;24821;51.988;6.020;2023-07-28T04:55:20;19.40;99.90
39067;DHT22;24821;51.988;6.020;2023-07-28T04:57:46;19.40;99.90
39067;DHT22;24821;51.988;6.020;2023-07-28T05:00:12;19.40;99.90
39067;DHT22;24821;51.988;6.020;2023-07-28T05:02:38;19.40;99.90
39067;DHT22;24821;51.988;6.020;2023-07-28T05:05:04;19.40;99.90
39067;DHT22;24821;51.988;6.020;2023-07-28T05:07:30;19.40;99.90
39067;DHT22;24821;51.988;6.020;2023-07-28T05:09:55;19.40;99.90
39067;DHT22;24821;51.988;6.020;2023-07-28T05:12:21;19.40;99.90
39067;DHT22;24821;51.988;6.020;2023-07-28T05:14:46;19.40;99.90
39067;DHT22;24821;51.988;6.020;2023-07-28T05:17:12;19.40;99.90
39067;DHT22;24821;51.988;6.020;2023-07-28T05:19:38;19.40;99.90
39067;DHT22;24821;51.988;6.020;2023-07-28T05:22:03;19.40;99.90
39067;DHT22;24821;51.988;6.020;2023-07-28T05:24:31;19.40;99.90
39067;DHT22;24821;51.988;6.020;2023-07-28T05:26:57;19.40;99.90
39067;DHT22;24821;51.988;6.020;2023-07-28T05:29:22;19.40;99.90
39067;DHT22;24821;51.988;6.020;2023-07-28T05:31:48;19.50;99.90
39067;DHT22;24821;51.988;6.020;2023-07-28T05:34:14;19.50;99.90
39067;DHT22;24821;51.988;6.020;2023-07-28T05:36:39;19.50;99.90
39067;DHT22;24821;51.988;6.020;2023-07-28T05:39:05;19.40;99.90
39067;DHT22;24821;51.988;6.020;2023-07-28T05:41:31;19.40;99.90
39067;DHT22;24821;51.988;6.020;2023-07-28T05:43:56;19.50;99.90
39067;DHT22;24821;51.988;6.020;2023-07-28T05:46:22;19.40;99.90
39067;DHT22;24821;51.988;6.020;2023-07-28T05:48:47;19.40;99.90
39067;DHT22;24821;51.988;6.020;2023-07-28T05:51:13;19.50;99.90
39067;DHT22;24821;51.988;6.020;2023-07-28T05:53:39;19.40;99.90
39067;DHT22;24821;51.988;6.020;2023-07-28T05:56:04;19.40;99.90
39067;DHT22;24821;51.988;6.020;2023-07-28T05:58:30;19.40;99.90
39067;DHT22;24821;51.988;6.020;2023-07-28T06:00:56;19.50;99.90
39067;DHT22;24821;51.988;6.020;2023-07-28T06:03:21;19.50;99.90
39067;DHT22;24821;51.988;6.020;2023-07-28T06:05:47;19.50;99.90
39067;DHT22;24821;51.988;6.020;2023-07-28T06:08:13;19.50;99.90
39067;DHT22;24821;51.988;6.020;2023-07-28T06:10:39;19.50;99.90
39067;DHT22;24821;51.988;6.020;2023-07-28T06:13:05;19.60;99.90
39067;DHT22;24821;51.988;6.020;2023-07-28T06:15:30;19.60;99.90
39067;DHT22;24821;51.988;6.020;2023-07-28T06:17:56;19.50;99.90
39067;DHT22;24821;51.988;6.020;2023-07-28T06:20:22;19.50;99.90
39067;DHT22;24821;51.988;6.020;2023-07-28T06:22:47;19.50;99.90
39067;DHT22;24821;51.988;6.020;2023-07-28T06:25:13;19.50;99.90
39067;DHT22;24821;51.988;6.020;2023-07-28T06:27:38;19.50;99.90
39067;DHT22;24821;51.988;6.020;2023-07-28T06:30:05;19.50;99.90
39067;DHT22;24821;51.988;6.020;2023-07-28T06:32:30;19.60;99.90
39067;DHT22;24821;51.988;6.020;2023-07-28T06:34:56;19.50;99.90
39067;DHT22;24821;51.988;6.020;2023-07-28T06:37:23;19.60;99.90
39067;DHT22;24821;51.988;6.020;2023-07-28T06:39:48;19.60;99.90
39067;DHT22;24821;51.988;6.020;2023-07-28T06:42:14;19.60;99.90
39067;DHT22;24821;51.988;6.020;2023-07-28T06:44:42;19.60;99.90
39067;DHT22;24821;51.988;6.020;2023-07-28T06:47:07;19.60;99.90
39067;DHT22;24821;51.988;6.020;2023-07-28T06:49:33;19.60;99.90
39067;DHT22;24821;51.988;6.020;2023-07-28T06:51:58;19.60;99.90
39067;DHT22;24821;51.988;6.020;2023-07-28T06:54:24;19.60;99.90
39067;DHT22;24821;51.988;6.020;2023-07-28T06:56:50;19.60;99.90
39067;DHT22;24821;51.988;6.020;2023-07-28T06:59:16;19.60;99.90
39067;DHT22;24821;51.988;6.020;2023-07-28T07:01:41;19.60;99.90
39067;DHT22;24821;51.988;6.020;2023-07-28T07:04:07;19.70;99.90
39067;DHT22;24821;51.988;6.020;2023-07-28T07:06:32;19.70;99.90
39067;DHT22;24821;51.988;6.020;2023-07-28T07:08:58;19.70;99.90
39067;DHT22;24821;51.988;6.020;2023-07-28T07:11:24;19.60;99.90
39067;DHT22;24821;51.988;6.020;2023-07-28T07:13:49;19.70;99.90
39067;DHT22;24821;51.988;6.020;2023-07-28T07:16:16;19.70;99.90
39067;DHT22;24821;51.988;6.020;2023-07-28T07:18:42;19.70;99.90
39067;DHT22;24821;51.988;6.020;2023-07-28T07:21:08;19.70;99.90
39067;DHT22;24821;51.988;6.020;2023-07-28T07:23:34;19.70;99.90
39067;DHT22;24821;51.988;6.020;2023-07-28T07:25:59;19.70;99.90
39067;DHT22;24821;51.988;6.020;2023-07-28T07:28:25;19.70;99.90
39067;DHT22;24821;51.988;6.020;2023-07-28T07:30:51;19.70;99.90
39067;DHT22;24821;51.988;6.020;2023-07-28T07:33:16;19.70;99.90
39067;DHT22;24821;51.988;6.020;2023-07-28T07:35:42;19.80;99.90
39067;DHT22;24821;51.988;6.020;2023-07-28T07:38:08;19.90;99.90
39067;DHT22;24821;51.988;6.020;2023-07-28T07:40:35;19.80;99.90
39067;DHT22;24821;51.988;6.020;2023-07-28T07:43:01;19.90;99.90
39067;DHT22;24821;51.988;6.020;2023-07-28T07:45:31;20.00;99.90
39067;DHT22;24821;51.988;6.020;2023-07-28T07:47:58;20.00;99.90
39067;DHT22;24821;51.988;6.020;2023-07-28T07:50:23;20.00;99.90
39067;DHT22;24821;51.988;6.020;2023-07-28T07:52:49;20.10;99.90
39067;DHT22;24821;51.988;6.020;2023-07-28T07:55:14;20.20;99.90
39067;DHT22;24821;51.988;6.020;2023-07-28T07:57:40;20.20;99.90
39067;DHT22;24821;51.988;6.020;2023-07-28T08:00:07;20.30;99.90
39067;DHT22;24821;51.988;6.020;2023-07-28T08:02:34;20.30;99.90
39067;DHT22;24821;51.988;6.020;2023-07-28T08:04:59;20.30;99.90
39067;DHT22;24821;51.988;6.020;2023-07-28T08:07:25;20.30;99.90
39067;DHT22;24821;51.988;6.020;2023-07-28T08:09:51;20.30;99.90
39067;DHT22;24821;51.988;6.020;2023-07-28T08:12:17;20.40;99.90
39067;DHT22;24821;51.988;6.020;2023-07-28T08:14:43;20.30;99.90
39067;DHT22;24821;51.988;6.020;2023-07-28T08:17:09;20.30;99.90
39067;DHT22;24821;51.988;6.020;2023-07-28T08:19:35;20.30;99.90
39067;DHT22;24821;51.988;6.020;2023-07-28T08:22:01;20.30;99.90
39067;DHT22;24821;51.988;6.020;2023-07-28T08:24:29;20.30;99.90
39067;DHT22;24821;51.988;6.020;2023-07-28T08:26:54;20.30;99.90
39067;DHT22;24821;51.988;6.020;2023-07-28T08:29:20;20.50;99.90
39067;DHT22;24821;51.988;6.020;2023-07-28T08:31:46;20.50;99.90
39067;DHT22;24821;51.988;6.020;2023-07-28T08:34:12;20.60;99.90
39067;DHT22;24821;51.988;6.020;2023-07-28T08:36:38;20.60;99.90
39067;DHT22;24821;51.988;6.020;2023-07-28T08:39:04;20.70;99.90
39067;DHT22;24821;51.988;6.020;2023-07-28T08:41:30;20.70;99.90
39067;DHT22;24821;51.988;6.020;2023-07-28T08:43:55;20.80;99.90
39067;DHT22;24821;51.988;6.020;2023-07-28T08:46:21;20.80;99.90
39067;DHT22;24821;51.988;6.020;2023-07-28T08:48:47;20.80;99.90
39067;DHT22;24821;51.988;6.020;2023-07-28T08:51:13;20.90;99.90
39067;DHT22;24821;51.988;6.020;2023-07-28T08:53:39;20.90;99.90
39067;DHT22;24821;51.988;6.020;2023-07-28T08:56:05;21.00;99.90
39067;DHT22;24821;51.988;6.020;2023-07-28T08:58:31;21.00;99.90
39067;DHT22;24821;51.988;6.020;2023-07-28T09:00:57;21.10;99.90
39067;DHT22;24821;51.988;6.020;2023-07-28T09:03:26;21.10;99.90
39067;DHT22;24821;51.988;6.020;2023-07-28T09:06:02;21.20;99.90
39067;DHT22;24821;51.988;6.020;2023-07-28T09:08:30;21.20;99.90
39067;DHT22;24821;51.988;6.020;2023-07-28T09:10:55;21.20;99.90
39067;DHT22;24821;51.988;6.020;2023-07-28T09:13:21;21.30;99.90
39067;DHT22;24821;51.988;6.020;2023-07-28T09:15:47;21.40;99.90
39067;DHT22;24821;51.988;6.020;2023-07-28T09:18:17;21.50;99.90
39067;DHT22;24821;51.988;6.020;2023-07-28T09:20:42;21.70;99.90
39067;DHT22;24821;51.988;6.020;2023-07-28T09:23:10;21.80;99.90
39067;DHT22;24821;51.988;6.020;2023-07-28T09:25:36;21.80;99.90
39067;DHT22;24821;51.988;6.020;2023-07-28T09:28:03;21.80;99.90
39067;DHT22;24821;51.988;6.020;2023-07-28T09:30:49;21.80;99.90
39067;DHT22;24821;51.988;6.020;2023-07-28T09:33:29;21.80;99.90
39067;DHT22;24821;51.988;6.020;2023-07-28T09:35:55;21.90;99.90
39067;DHT22;24821;51.988;6.020;2023-07-28T09:38:22;21.90;99.90
39067;DHT22;24821;51.988;6.020;2023-07-28T09:40:48;21.90;99.90
39067;DHT22;24821;51.988;6.020;2023-07-28T09:43:14;22.00;99.90
39067;DHT22;24821;51.988;6.020;2023-07-28T09:45:40;22.00;99.90
39067;DHT22;24821;51.988;6.020;2023-07-28T09:48:09;22.00;99.90
39067;DHT22;24821;51.988;6.020;2023-07-28T09:50:38;22.00;99.90
39067;DHT22;24821;51.988;6.020;2023-07-28T09:53:04;21.90;99.90
39067;DHT22;24821;51.988;6.020;2023-07-28T09:55:30;22.00;99.90
39067;DHT22;24821;51.988;6.020;2023-07-28T09:57:58;22.00;99.90
39067;DHT22;24821;51.988;6.020;2023-07-28T10:00:27;22.10;99.90
39067;DHT22;24821;51.988;6.020;2023-07-28T10:02:53;22.30;99.90
39067;DHT22;24821;51.988;6.020;2023-07-28T10:05:19;22.40;99.90
39067;DHT22;24821;51.988;6.020;2023-07-28T10:07:47;22.50;99.90
39067;DHT22;24821;51.988;6.020;2023-07-28T10:10:14;22.80;99.90
39067;DHT22;24821;51.988;6.020;2023-07-28T10:15:15;23.30;99.90
39067;DHT22;24821;51.988;6.020;2023-07-28T10:17:53;23.40;99.90
39067;DHT22;24821;51.988;6.020;2023-07-28T10:20:36;23.50;99.90
39067;DHT22;24821;51.988;6.020;2023-07-28T10:23:11;23.60;99.90
39067;DHT22;24821;51.988;6.020;2023-07-28T10:25:38;23.80;99.90
39067;DHT22;24821;51.988;6.020;2023-07-28T10:28:05;24.00;99.90
39067;DHT22;24821;51.988;6.020;2023-07-28T10:30:35;24.20;99.90
39067;DHT22;24821;51.988;6.020;2023-07-28T10:33:02;24.40;99.90
39067;DHT22;24821;51.988;6.020;2023-07-28T10:35:28;24.40;99.90
39067;DHT22;24821;51.988;6.020;2023-07-28T10:37:56;24.50;99.90
39067;DHT22;24821;51.988;6.020;2023-07-28T10:40:35;24.70;99.90
39067;DHT22;24821;51.988;6.020;2023-07-28T10:43:02;24.90;99.90
39067;DHT22;24821;51.988;6.020;2023-07-28T10:45:29;24.80;99.90
39067;DHT22;24821;51.988;6.020;2023-07-28T10:47:56;24.90;99.90
39067;DHT22;24821;51.988;6.020;2023-07-28T10:50:29;24.90;99.90
39067;DHT22;24821;51.988;6.020;2023-07-28T10:52:55;24.90;99.90
39067;DHT22;24821;51.988;6.020;2023-07-28T10:55:23;25.10;99.90
39067;DHT22;24821;51.988;6.020;2023-07-28T10:57:51;25.10;99.90
39067;DHT22;24821;51.988;6.020;2023-07-28T11:00:19;25.20;99.90
39067;DHT22;24821;51.988;6.020;2023-07-28T11:02:49;25.30;99.90
39067;DHT22;24821;51.988;6.020;2023-07-28T11:05:26;25.30;99.90
39067;DHT22;24821;51.988;6.020;2023-07-28T11:07:55;25.50;99.90
39067;DHT22;24821;51.988;6.020;2023-07-28T11:10:21;25.60;99.90
39067;DHT22;24821;51.988;6.020;2023-07-28T11:12:49;25.60;99.90
39067;DHT22;24821;51.988;6.020;2023-07-28T11:15:16;25.40;99.60
39067;DHT22;24821;51.988;6.020;2023-07-28T11:17:44;25.20;99.90
39067;DHT22;24821;51.988;6.020;2023-07-28T11:20:21;24.90;99.90
39067;DHT22;24821;51.988;6.020;2023-07-28T11:22:52;24.80;99.90
39067;DHT22;24821;51.988;6.020;2023-07-28T11:25:18;24.70;99.90
39067;DHT22;24821;51.988;6.020;2023-07-28T11:27:44;24.70;99.80
39067;DHT22;24821;51.988;6.020;2023-07-28T11:30:15;24.60;99.80
39067;DHT22;24821;51.988;6.020;2023-07-28T11:32:43;24.50;99.90
39067;DHT22;24821;51.988;6.020;2023-07-28T11:35:11;24.80;99.90
39067;DHT22;24821;51.988;6.020;2023-07-28T11:37:38;24.90;99.90
39067;DHT22;24821;51.988;6.020;2023-07-28T11:40:05;24.80;99.90
39067;DHT22;24821;51.988;6.020;2023-07-28T11:42:55;24.70;99.70
39067;DHT22;24821;51.988;6.020;2023-07-28T11:45:22;24.50;99.90
39067;DHT22;24821;51.988;6.020;2023-07-28T11:48:06;24.50;99.90
39067;DHT22;24821;51.988;6.020;2023-07-28T11:50:38;24.50;99.90
39067;DHT22;24821;51.988;6.020;2023-07-28T11:53:04;24.60;99.80
39067;DHT22;24821;51.988;6.020;2023-07-28T11:55:31;24.70;99.80
39067;DHT22;24821;51.988;6.020;2023-07-28T11:57:58;24.80;99.50
39067;DHT22;24821;51.988;6.020;2023-07-28T12:00:37;24.90;99.80
39067;DHT22;24821;51.988;6.020;2023-07-28T12:03:12;25.10;99.80
39067;DHT22;24821;51.988;6.020;2023-07-28T12:05:39;25.10;99.70
39067;DHT22;24821;51.988;6.020;2023-07-28T12:08:06;25.20;99.10
39067;DHT22;24821;51.988;6.020;2023-07-28T12:10:34;25.20;99.20
39067;DHT22;24821;51.988;6.020;2023-07-28T12:13:04;25.20;99.40
39067;DHT22;24821;51.988;6.020;2023-07-28T12:15:31;25.30;99.80
39067;DHT22;24821;51.988;6.020;2023-07-28T12:20:40;25.30;98.80
39067;DHT22;24821;51.988;6.020;2023-07-28T12:23:07;25.30;99.10
39067;DHT22;24821;51.988;6.020;2023-07-28T12:25:35;25.30;99.30
39067;DHT22;24821;51.988;6.020;2023-07-28T12:28:02;25.40;99.00
39067;DHT22;24821;51.988;6.020;2023-07-28T12:30:28;25.50;99.00
39067;DHT22;24821;51.988;6.020;2023-07-28T12:32:53;25.50;98.80
39067;DHT22;24821;51.988;6.020;2023-07-28T12:35:19;25.40;98.30
39067;DHT22;24821;51.988;6.020;2023-07-28T12:37:51;25.40;98.80
39067;DHT22;24821;51.988;6.020;2023-07-28T12:40:17;25.50;98.40
39067;DHT22;24821;51.988;6.020;2023-07-28T12:42:45;25.40;98.40
39067;DHT22;24821;51.988;6.020;2023-07-28T12:45:11;25.50;98.80
39067;DHT22;24821;51.988;6.020;2023-07-28T12:47:37;25.50;98.70
39067;DHT22;24821;51.988;6.020;2023-07-28T12:50:03;25.60;98.10
39067;DHT22;24821;51.988;6.020;2023-07-28T12:52:29;25.70;98.10
39067;DHT22;24821;51.988;6.020;2023-07-28T12:54:55;25.90;98.20
39067;DHT22;24821;51.988;6.020;2023-07-28T12:57:20;26.00;98.30
39067;DHT22;24821;51.988;6.020;2023-07-28T12:59:46;26.20;97.50
39067;DHT22;24821;51.988;6.020;2023-07-28T13:02:11;26.20;98.00
39067;DHT22;24821;51.988;6.020;2023-07-28T13:04:37;26.20;97.40
39067;DHT22;24821;51.988;6.020;2023-07-28T13:07:03;26.30;97.60
39067;DHT22;24821;51.988;6.020;2023-07-28T13:09:28;26.30;97.40
39067;DHT22;24821;51.988;6.020;2023-07-28T13:11:54;26.40;97.40
39067;DHT22;24821;51.988;6.020;2023-07-28T13:14:19;26.40;97.00
39067;DHT22;24821;51.988;6.020;2023-07-28T13:16:45;26.50;96.70
39067;DHT22;24821;51.988;6.020;2023-07-28T13:19:11;26.60;96.90
39067;DHT22;24821;51.988;6.020;2023-07-28T13:21:37;26.70;97.40
39067;DHT22;24821;51.988;6.020;2023-07-28T13:24:02;26.90;96.70
39067;DHT22;24821;51.988;6.020;2023-07-28T13:26:28;26.90;96.40
39067;DHT22;24821;51.988;6.020;2023-07-28T13:28:54;26.90;95.60
39067;DHT22;24821;51.988;6.020;2023-07-28T13:31:22;26.90;96.30
39067;DHT22;24821;51.988;6.020;2023-07-28T13:33:47;26.90;96.40
39067;DHT22;24821;51.988;6.020;2023-07-28T13:36:13;26.90;96.40
39067;DHT22;24821;51.988;6.020;2023-07-28T13:38:39;26.90;96.20
39067;DHT22;24821;51.988;6.020;2023-07-28T13:41:06;26.90;95.90
39067;DHT22;24821;51.988;6.020;2023-07-28T13:43:33;27.00;96.00
39067;DHT22;24821;51.988;6.020;2023-07-28T13:46:01;27.00;95.90
39067;DHT22;24821;51.988;6.020;2023-07-28T13:48:27;27.00;95.20
39067;DHT22;24821;51.988;6.020;2023-07-28T13:50:52;27.10;95.60
39067;DHT22;24821;51.988;6.020;2023-07-28T13:53:18;27.20;96.10
39067;DHT22;24821;51.988;6.020;2023-07-28T13:55:43;27.30;95.70
39067;DHT22;24821;51.988;6.020;2023-07-28T13:58:09;27.40;94.40
39067;DHT22;24821;51.988;6.020;2023-07-28T14:00:35;27.40;95.00
39067;DHT22;24821;51.988;6.020;2023-07-28T14:03:01;27.30;94.30
39067;DHT22;24821;51.988;6.020;2023-07-28T14:05:27;27.10;94.90
39067;DHT22;24821;51.988;6.020;2023-07-28T14:07:53;27.00;94.40
39067;DHT22;24821;51.988;6.020;2023-07-28T14:10:18;26.90;95.10
39067;DHT22;24821;51.988;6.020;2023-07-28T14:12:44;27.10;94.30
39067;DHT22;24821;51.988;6.020;2023-07-28T14:15:09;27.20;94.60
39067;DHT22;24821;51.988;6.020;2023-07-28T14:17:35;27.20;94.30
39067;DHT22;24821;51.988;6.020;2023-07-28T14:20:01;27.20;94.00
39067;DHT22;24821;51.988;6.020;2023-07-28T14:22:26;27.20;94.80
39067;DHT22;24821;51.988;6.020;2023-07-28T14:24:52;27.30;94.10
39067;DHT22;24821;51.988;6.020;2023-07-28T14:27:18;27.30;94.20
39067;DHT22;24821;51.988;6.020;2023-07-28T14:29:43;27.20;94.00
39067;DHT22;24821;51.988;6.020;2023-07-28T14:32:09;27.30;93.80
39067;DHT22;24821;51.988;6.020;2023-07-28T14:34:34;27.30;94.20
39067;DHT22;24821;51.988;6.020;2023-07-28T14:37:04;27.30;93.60
39067;DHT22;24821;51.988;6.020;2023-07-28T14:39:33;27.20;94.00
39067;DHT22;24821;51.988;6.020;2023-07-28T14:41:58;27.30;94.20
39067;DHT22;24821;51.988;6.020;2023-07-28T14:44:24;27.40;94.20
39067;DHT22;24821;51.988;6.020;2023-07-28T14:46:49;27.50;93.80
39067;DHT22;24821;51.988;6.020;2023-07-28T14:49:15;27.50;93.10
39067;DHT22;24821;51.988;6.020;2023-07-28T14:51:41;27.30;93.30
39067;DHT22;24821;51.988;6.020;2023-07-28T14:54:06;27.10;93.70
39067;DHT22;24821;51.988;6.020;2023-07-28T14:56:32;27.00;94.30
39067;DHT22;24821;51.988;6.020;2023-07-28T14:59:01;27.10;94.40
39067;DHT22;24821;51.988;6.020;2023-07-28T15:01:27;27.20;94.20
39067;DHT22;24821;51.988;6.020;2023-07-28T15:03:53;27.20;94.10
39067;DHT22;24821;51.988;6.020;2023-07-28T15:06:19;27.10;93.90
39067;DHT22;24821;51.988;6.020;2023-07-28T15:08:44;27.10;94.00
39067;DHT22;24821;51.988;6.020;2023-07-28T15:11:10;27.00;93.50
39067;DHT22;24821;51.988;6.020;2023-07-28T15:13:36;27.00;94.30
39067;DHT22;24821;51.988;6.020;2023-07-28T15:16:02;27.00;94.70
39067;DHT22;24821;51.988;6.020;2023-07-28T15:18:27;26.80;94.80
39067;DHT22;24821;51.988;6.020;2023-07-28T15:20:53;26.60;94.70
39067;DHT22;24821;51.988;6.020;2023-07-28T15:23:24;26.40;94.90
39067;DHT22;24821;51.988;6.020;2023-07-28T15:25:50;26.30;95.10
39067;DHT22;24821;51.988;6.020;2023-07-28T15:28:18;26.10;95.00
39067;DHT22;24821;51.988;6.020;2023-07-28T15:30:44;26.00;95.20
39067;DHT22;24821;51.988;6.020;2023-07-28T15:33:11;25.90;95.60